createdAt,value
2023-04-20T00:03:14.057Z,93.03
2023-04-20T00:06:55.832Z,92.84
2023-04-20T00:10:24.954Z,93.06
2023-04-20T00:14:12.615Z,93.60
2023-04-20T00:18:01.803Z,93.57
2023-04-20T00:21:50.892Z,93.45
2023-04-20T00:25:03.825Z,93.27
2023-04-20T00:28:42.963Z,93.83
2023-04-20T00:32:32.170Z,93.94
2023-04-20T00:36:21.314Z,93.70
2023-04-20T00:39:31.354Z,93.77
2023-04-20T00:43:20.649Z,94.08
2023-04-20T00:47:00.582Z,94.42
2023-04-20T00:50:32.040Z,94.48
2023-04-20T00:54:08.920Z,94.29
2023-04-20T00:57:41.069Z,94.56
2023-04-20T01:01:19.329Z,94.51
2023-04-20T01:04:59.258Z,94.61
2023-04-20T01:08:25.903Z,94.59
2023-04-20T01:12:04.942Z,94.92
2023-04-20T01:15:26.982Z,94.61
2023-04-20T01:19:04.359Z,94.84
2023-04-20T01:22:58.660Z,94.85
2023-04-20T01:26:06.596Z,94.29
2023-04-20T01:29:55.693Z,94.57
2023-04-20T01:33:24.427Z,94.51
2023-04-20T01:37:02.457Z,94.29
2023-04-20T01:40:27.343Z,94.55
2023-04-20T01:44:09.078Z,94.61
2023-04-20T01:47:46.733Z,94.41
2023-04-20T01:51:16.301Z,94.56
2023-04-20T01:54:58.218Z,94.48
2023-04-20T01:58:29.603Z,94.67
2023-04-20T02:02:03.977Z,94.84
2023-04-20T02:05:28.511Z,94.99
2023-04-20T02:08:52.702Z,95.04
2023-04-20T02:12:09.711Z,94.77
2023-04-20T02:15:38.687Z,94.94
2023-04-20T02:19:06.579Z,94.83
2023-04-20T02:22:24.165Z,94.90
2023-04-20T02:26:13.275Z,95.01
2023-04-20T02:29:45.085Z,95.05
2023-04-20T02:32:49.913Z,94.80
2023-04-20T02:36:14.953Z,94.72
2023-04-20T02:39:28.768Z,94.71
2023-04-20T02:42:38.768Z,94.89
2023-04-20T02:46:09.766Z,94.91
2023-04-20T02:49:34.629Z,95.18
2023-04-20T02:53:10.473Z,95.34
2023-04-20T02:56:41.519Z,95.68
2023-04-20T03:00:24.251Z,95.48
2023-04-20T03:04:04.323Z,95.23
2023-04-20T03:07:38.825Z,95.18
2023-04-20T03:11:19.554Z,95.39
2023-04-20T03:14:49.310Z,95.49
2023-04-20T03:18:16.884Z,95.47
2023-04-20T03:21:59.082Z,95.84
2023-04-20T03:25:14.558Z,95.84
2023-04-20T03:28:56.982Z,95.82
2023-04-20T03:32:08.529Z,95.66
2023-04-20T03:35:44.317Z,95.75
2023-04-20T03:39:34.629Z,95.81
2023-04-20T03:43:16.918Z,96.10
2023-04-20T03:46:50.328Z,96.13
2023-04-20T03:50:19.423Z,96.36
2023-04-20T03:53:35.216Z,96.37
2023-04-20T03:57:15.391Z,96.58
2023-04-20T04:00:24.193Z,96.47
2023-04-20T04:03:31.055Z,96.39
2023-04-20T04:06:22.296Z,96.56
2023-04-20T04:09:36.239Z,96.57
2023-04-20T04:12:59.497Z,96.75
2023-04-20T04:15:57.174Z,96.69
2023-04-20T04:18:32.467Z,97.01
2023-04-20T04:21:06.922Z,96.76
2023-04-20T04:24:04.988Z,96.94
2023-04-20T04:27:05.503Z,96.98
2023-04-20T04:29:45.697Z,96.78
2023-04-20T04:32:26.464Z,96.55
2023-04-20T04:35:26.345Z,96.54
2023-04-20T04:38:33.662Z,96.42
2023-04-20T04:41:49.517Z,96.31
2023-04-20T04:44:39.644Z,96.50
2023-04-20T04:47:14.552Z,96.45
2023-04-20T04:49:54.268Z,96.66
2023-04-20T04:52:37.939Z,96.56
2023-04-20T04:55:48.011Z,96.50
2023-04-20T04:58:31.317Z,96.32
2023-04-20T05:01:27.789Z,96.48
2023-04-20T05:04:34.625Z,96.40
2023-04-20T05:07:21.454Z,96.02
2023-04-20T05:10:29.145Z,96.36
2023-04-20T05:13:30.704Z,96.17
2023-04-20T05:16:30.239Z,96.46
2023-04-20T05:19:22.450Z,96.37
2023-04-20T05:22:54.297Z,96.37
2023-04-20T05:26:06.542Z,95.90
2023-04-20T05:28:43.098Z,95.72
2023-04-20T05:31:45.721Z,95.77
2023-04-20T05:34:26.111Z,95.63
2023-04-20T05:37:13.523Z,95.91
2023-04-20T05:39:54.917Z,95.99
2023-04-20T05:42:52.580Z,95.98
2023-04-20T05:45:29.940Z,95.83
2023-04-20T05:48:33.982Z,95.71
2023-04-20T05:51:34.505Z,95.72
2023-04-20T05:54:28.496Z,96.06
2023-04-20T05:57:05.673Z,96.06
2023-04-20T05:59:56.264Z,96.21
2023-04-20T06:02:35.853Z,96.24
2023-04-20T06:05:34.398Z,96.19
2023-04-20T06:08:50.972Z,96.16
2023-04-20T06:11:36.279Z,96.08
2023-04-20T06:14:18.272Z,96.19
2023-04-20T06:17:21.301Z,96.40
2023-04-20T06:20:23.141Z,96.28
2023-04-20T06:23:28.578Z,96.00
2023-04-20T06:26:25.518Z,96.12
2023-04-20T06:29:04.575Z,96.42
2023-04-20T06:31:58.406Z,96.42
2023-04-20T06:34:51.284Z,96.77
2023-04-20T06:37:38.991Z,96.28
2023-04-20T06:40:43.240Z,95.96
2023-04-20T06:43:50.093Z,95.64
2023-04-20T06:46:36.470Z,95.57
2023-04-20T06:49:16.645Z,95.45
2023-04-20T06:52:34.184Z,95.79
2023-04-20T06:55:49.256Z,95.84
2023-04-20T06:58:25.809Z,95.69
2023-04-20T07:01:03.504Z,95.68
2023-04-20T07:03:54.310Z,95.69
2023-04-20T07:06:43.267Z,96.02
2023-04-20T07:09:23.425Z,96.03
2023-04-20T07:12:02.867Z,96.20
2023-04-20T07:14:43.220Z,96.14
2023-04-20T07:17:20.500Z,96.16
2023-04-20T07:20:26.180Z,96.36
2023-04-20T07:23:05.187Z,96.50
2023-04-20T07:26:17.794Z,96.60
2023-04-20T07:28:58.470Z,96.14
2023-04-20T07:31:52.436Z,96.09
2023-04-20T07:34:30.132Z,95.80
2023-04-20T07:37:10.182Z,95.55
2023-04-20T07:39:43.682Z,95.62
2023-04-20T07:42:15.546Z,95.55
2023-04-20T07:44:59.072Z,95.50
2023-04-20T07:47:51.541Z,95.29
2023-04-20T07:50:26.649Z,95.54
2023-04-20T07:53:03.751Z,95.64
2023-04-20T07:55:37.464Z,95.51
2023-04-20T07:58:06.332Z,95.33
2023-04-20T08:00:38.491Z,95.34
2023-04-20T08:03:23.384Z,95.53
2023-04-20T08:05:57.768Z,95.35
2023-04-20T08:08:47.961Z,94.80
2023-04-20T08:11:19.506Z,94.78
2023-04-20T08:14:11.131Z,94.34
2023-04-20T08:16:55.072Z,94.53
2023-04-20T08:19:26.872Z,94.16
2023-04-20T08:22:01.502Z,93.70
2023-04-20T08:24:41.402Z,94.12
2023-04-20T08:27:32.413Z,93.18
2023-04-20T08:30:08.977Z,92.83
2023-04-20T08:32:45.471Z,92.43
2023-04-20T08:35:41.977Z,92.94
2023-04-20T08:38:32.902Z,92.68
2023-04-20T08:41:09.589Z,92.79
2023-04-20T08:43:50.936Z,92.95
2023-04-20T08:46:34.041Z,92.74
2023-04-20T08:49:24.554Z,92.44
2023-04-20T08:52:10.957Z,91.62
2023-04-20T08:54:56.866Z,91.21
2023-04-20T08:57:35.457Z,91.11
2023-04-20T09:00:16.228Z,90.86
2023-04-20T09:03:02.066Z,90.63
2023-04-20T09:05:53.015Z,90.12
2023-04-20T09:08:34.805Z,90.08
2023-04-20T09:11:39.233Z,90.24
2023-04-20T09:14:24.820Z,90.00
2023-04-20T09:17:14.928Z,90.46
2023-04-20T09:20:06.827Z,90.04
2023-04-20T09:22:47.487Z,90.09
2023-04-20T09:25:32.656Z,89.86
2023-04-20T09:28:24.483Z,89.37
2023-04-20T09:30:56.445Z,89.45
2023-04-20T09:33:41.309Z,89.53
2023-04-20T09:36:26.789Z,89.19
2023-04-20T09:39:16.302Z,89.22
2023-04-20T09:41:51.212Z,89.17
2023-04-20T09:44:30.111Z,88.72
2023-04-20T09:47:06.782Z,88.56
2023-04-20T09:49:53.195Z,88.37
2023-04-20T09:52:30.469Z,88.21
2023-04-20T09:55:14.511Z,87.60
2023-04-20T09:57:50.257Z,87.41
2023-04-20T10:00:27.560Z,87.29
2023-04-20T10:03:05.233Z,86.99
2023-04-20T10:05:39.859Z,86.72
2023-04-20T10:08:20.595Z,85.99
2023-04-20T10:10:55.255Z,86.30
2023-04-20T10:13:34.191Z,86.22
2023-04-20T10:16:17.222Z,85.76
2023-04-20T10:19:07.711Z,85.68
2023-04-20T10:21:48.412Z,85.02
2023-04-20T10:24:31.593Z,85.08
2023-04-20T10:27:20.546Z,83.74
2023-04-20T10:29:54.799Z,82.99
2023-04-20T10:32:28.046Z,83.24
2023-04-20T10:35:06.624Z,83.64
2023-04-20T10:37:47.959Z,82.56
2023-04-20T10:40:16.634Z,81.46
2023-04-20T10:42:46.159Z,80.69
2023-04-20T10:45:16.875Z,80.27
2023-04-20T10:47:45.887Z,80.15
2023-04-20T10:50:18.368Z,79.41
2023-04-20T10:52:46.917Z,78.35
2023-04-20T10:55:20.835Z,78.39
2023-04-20T10:57:52.483Z,77.74
2023-04-20T11:00:26.571Z,77.16
2023-04-20T11:02:59.310Z,76.28
2023-04-20T11:05:28.093Z,75.86
2023-04-20T11:08:03.395Z,74.36
2023-04-20T11:10:42.826Z,74.78
2023-04-20T11:13:25.609Z,74.54
2023-04-20T11:15:54.033Z,74.24
2023-04-20T11:18:25.163Z,73.75
2023-04-20T11:20:55.290Z,73.14
2023-04-20T11:23:24.901Z,72.92
2023-04-20T11:25:57.475Z,72.18
2023-04-20T11:28:30.550Z,70.87
2023-04-20T11:30:59.030Z,70.83
2023-04-20T11:33:31.665Z,69.55
2023-04-20T11:36:01.121Z,69.79
2023-04-20T11:38:34.620Z,68.90
2023-04-20T11:41:08.067Z,68.28
2023-04-20T11:43:36.382Z,68.52
2023-04-20T11:46:17.144Z,68.04
2023-04-20T11:48:49.529Z,67.54
2023-04-20T11:51:17.893Z,67.74
2023-04-20T11:53:46.886Z,68.07
2023-04-20T11:56:15.126Z,67.70
2023-04-20T11:58:43.289Z,66.90
2023-04-20T12:01:11.605Z,66.41
2023-04-20T12:03:40.561Z,66.07
2023-04-20T12:06:09.282Z,65.34
2023-04-20T12:08:37.672Z,64.87
2023-04-20T12:11:06.039Z,64.44
2023-04-20T12:13:34.209Z,64.04
2023-04-20T12:16:02.405Z,63.87
2023-04-20T12:18:30.758Z,63.88
2023-04-20T12:20:59.952Z,63.56
2023-04-20T12:23:28.328Z,62.79
2023-04-20T12:25:56.919Z,61.77
2023-04-20T12:28:25.288Z,61.72
2023-04-20T12:30:53.497Z,61.40
2023-04-20T12:33:21.733Z,61.26
2023-04-20T12:35:49.910Z,62.07
2023-04-20T12:38:18.288Z,61.55
2023-04-20T12:40:46.765Z,60.33
2023-04-20T12:43:15.044Z,59.41
2023-04-20T12:45:43.207Z,59.21
2023-04-20T12:48:11.506Z,58.98
2023-04-20T12:50:39.962Z,59.04
2023-04-20T12:53:08.147Z,59.10
2023-04-20T12:55:36.410Z,59.39
2023-04-20T12:58:04.585Z,58.46
2023-04-20T13:00:33.170Z,59.12
2023-04-20T13:03:02.116Z,59.50
2023-04-20T13:05:30.737Z,59.79
2023-04-20T13:07:59.030Z,59.93
2023-04-20T13:10:27.388Z,59.79
2023-04-20T13:13:04.779Z,59.94
2023-04-20T13:18:06.635Z,59.02
2023-04-20T13:20:35.049Z,59.16
2023-04-20T13:23:04.326Z,59.16
2023-04-20T13:25:33.618Z,58.85
2023-04-20T13:28:03.450Z,59.16
2023-04-20T13:30:32.372Z,59.16
2023-04-20T13:33:00.881Z,59.52
2023-04-20T13:35:29.086Z,59.19
2023-04-20T13:37:57.456Z,58.44
2023-04-20T13:40:26.243Z,57.80
2023-04-20T13:42:54.832Z,57.97
2023-04-20T13:45:23.715Z,57.63
2023-04-20T13:47:54.981Z,57.82
2023-04-20T13:50:23.645Z,58.04
2023-04-20T13:52:54.889Z,58.31
2023-04-20T13:55:24.347Z,58.35
2023-04-20T13:57:53.595Z,58.52
2023-04-20T14:00:23.714Z,58.91
2023-04-20T14:02:52.355Z,59.44
2023-04-20T14:05:20.972Z,59.95
2023-04-20T14:07:49.150Z,59.37
2023-04-20T14:10:17.736Z,58.17
2023-04-20T14:12:46.208Z,57.74
2023-04-20T14:15:14.482Z,57.35
2023-04-20T14:17:42.687Z,56.78
2023-04-20T14:20:11.874Z,56.61
2023-04-20T14:22:40.040Z,56.57
2023-04-20T14:25:08.715Z,55.87
2023-04-20T14:27:36.986Z,56.24
2023-04-20T14:30:06.271Z,56.76
2023-04-20T14:32:35.501Z,56.53
2023-04-20T14:35:05.601Z,56.25
2023-04-20T14:37:34.286Z,55.99
2023-04-20T14:40:02.555Z,54.66
2023-04-20T14:42:30.939Z,54.18
2023-04-20T14:44:59.105Z,54.67
2023-04-20T14:47:27.321Z,54.28
2023-04-20T14:49:55.460Z,54.10
2023-04-20T14:52:23.832Z,52.94
2023-04-20T14:54:51.998Z,52.82
2023-04-20T14:57:20.692Z,53.02
2023-04-20T14:59:48.855Z,52.75
2023-04-20T15:02:18.735Z,52.40
2023-04-20T15:04:47.490Z,53.01
2023-04-20T15:07:15.825Z,53.47
2023-04-20T15:09:43.998Z,52.87
2023-04-20T15:12:12.374Z,52.32
2023-04-20T15:14:40.751Z,52.42
2023-04-20T15:17:09.033Z,52.70
2023-04-20T15:19:37.406Z,53.01
2023-04-20T15:22:05.698Z,52.55
2023-04-20T15:24:33.955Z,52.37
2023-04-20T15:27:03.541Z,52.43
2023-04-20T15:29:33.581Z,52.30
2023-04-20T15:32:01.798Z,51.53
2023-04-20T15:34:30.328Z,51.17
2023-04-20T15:36:58.476Z,50.73
2023-04-20T15:39:26.673Z,49.94
2023-04-20T15:41:54.860Z,49.08
2023-04-20T15:44:23.023Z,48.38
2023-04-20T15:46:51.297Z,47.62
2023-04-20T15:49:20.695Z,47.84
2023-04-20T15:51:48.967Z,48.23
2023-04-20T15:54:17.445Z,48.73
2023-04-20T15:56:46.234Z,48.67
2023-04-20T15:59:14.405Z,47.94
2023-04-20T16:01:42.630Z,47.48
2023-04-20T16:04:11.432Z,47.26
2023-04-20T16:06:41.285Z,47.14
2023-04-20T16:09:09.349Z,47.38
2023-04-20T16:11:37.520Z,47.53
2023-04-20T16:14:05.999Z,47.61
2023-04-20T16:16:34.336Z,47.52
2023-04-20T16:19:02.760Z,48.26
2023-04-20T16:21:30.921Z,48.52
2023-04-20T16:23:59.200Z,48.74
2023-04-20T16:26:27.372Z,49.28
2023-04-20T16:28:55.751Z,49.80
2023-04-20T16:31:24.207Z,50.13
2023-04-20T16:33:52.812Z,50.40
2023-04-20T16:36:21.496Z,50.54
2023-04-20T16:38:49.668Z,51.06
2023-04-20T16:41:18.163Z,51.37
2023-04-20T16:43:47.039Z,51.74
2023-04-20T16:46:16.627Z,52.11
2023-04-20T16:48:45.231Z,52.30
2023-04-20T16:51:13.811Z,52.67
2023-04-20T16:53:43.109Z,52.85
2023-04-20T16:56:12.401Z,53.18
2023-04-20T16:58:40.784Z,53.34
2023-04-20T17:01:09.480Z,53.82
2023-04-20T17:03:38.289Z,54.01
2023-04-20T17:06:09.936Z,54.21
2023-04-20T17:08:38.496Z,54.35
2023-04-20T17:11:07.074Z,54.59
2023-04-20T17:13:35.653Z,54.86
2023-04-20T17:16:04.514Z,55.02
2023-04-20T17:18:34.457Z,55.41
2023-04-20T17:21:02.942Z,55.56
2023-04-20T17:23:34.180Z,55.91
2023-04-20T17:26:03.478Z,56.10
2023-04-20T17:28:32.268Z,56.48
2023-04-20T17:31:01.059Z,56.66
2023-04-20T17:33:29.697Z,56.89
2023-04-20T17:36:01.289Z,57.12
2023-04-20T17:38:30.482Z,57.31
2023-04-20T17:41:01.217Z,57.66
2023-04-20T17:43:29.804Z,57.85
2023-04-20T17:46:00.936Z,58.32
2023-04-20T17:48:29.620Z,58.49
2023-04-20T17:51:00.365Z,58.80
2023-04-20T17:53:31.807Z,59.12
2023-04-20T17:56:03.773Z,59.41
2023-04-20T17:58:32.900Z,59.55
2023-04-20T18:01:01.586Z,59.73
2023-04-20T18:03:33.126Z,60.01
2023-04-20T18:06:04.847Z,60.28
2023-04-20T18:08:34.813Z,60.47
2023-04-20T18:11:05.853Z,60.72
2023-04-20T18:13:41.966Z,61.01
2023-04-20T18:16:13.645Z,61.22
2023-04-20T18:18:49.879Z,61.74
2023-04-20T18:21:18.563Z,62.16
2023-04-20T18:23:49.909Z,62.50
2023-04-20T18:26:25.049Z,62.79
2023-04-20T18:28:56.592Z,63.13
2023-04-20T18:31:27.983Z,63.48
2023-04-20T18:33:59.927Z,63.76
2023-04-20T18:36:34.017Z,64.13
2023-04-20T18:39:12.943Z,64.41
2023-04-20T18:41:54.114Z,64.77
2023-04-20T18:44:28.426Z,65.09
2023-04-20T18:47:00.032Z,65.44
2023-04-20T18:49:35.117Z,65.74
2023-04-20T18:52:06.162Z,66.17
2023-04-20T18:54:57.789Z,66.46
2023-04-20T18:57:32.737Z,66.89
2023-04-20T19:00:11.398Z,67.17
2023-04-20T19:02:46.610Z,67.60
2023-04-20T19:05:44.024Z,67.75
2023-04-20T19:08:18.136Z,68.27
2023-04-20T19:11:12.241Z,68.62
2023-04-20T19:13:48.684Z,68.93
2023-04-20T19:16:25.203Z,69.34
2023-04-20T19:19:03.053Z,69.65
2023-04-20T19:21:40.009Z,69.82
2023-04-20T19:24:20.695Z,69.96
2023-04-20T19:26:55.115Z,70.27
2023-04-20T19:29:35.572Z,70.51
2023-04-20T19:32:21.646Z,70.76
2023-04-20T19:34:57.924Z,70.91
2023-04-20T19:37:34.300Z,71.08
2023-04-20T19:40:16.824Z,71.39
2023-04-20T19:42:50.204Z,71.73
2023-04-20T19:45:23.896Z,71.93
2023-04-20T19:48:00.716Z,72.10
2023-04-20T19:50:42.387Z,72.15
2023-04-20T19:53:14.111Z,72.30
2023-04-20T19:55:48.884Z,72.31
2023-04-20T19:58:20.289Z,72.59
2023-04-20T20:00:54.385Z,72.46
2023-04-20T20:03:35.225Z,72.78
2023-04-20T20:06:09.483Z,73.00
2023-04-20T20:08:50.052Z,73.20
2023-04-20T20:11:25.595Z,73.74
2023-04-20T20:14:09.340Z,73.65
2023-04-20T20:16:57.464Z,73.73
2023-04-20T20:19:31.613Z,73.94
2023-04-20T20:22:05.588Z,74.04
2023-04-20T20:24:46.967Z,74.00
2023-04-20T20:27:28.451Z,74.19
2023-04-20T20:30:14.034Z,74.51
2023-04-20T20:32:57.392Z,74.80
2023-04-20T20:35:31.383Z,74.82
2023-04-20T20:38:10.497Z,75.14
2023-04-20T20:40:47.074Z,75.47
2023-04-20T20:43:30.292Z,75.60
2023-04-20T20:46:07.210Z,75.87
2023-04-20T20:48:48.447Z,75.90
2023-04-20T20:51:28.599Z,76.07
2023-04-20T20:54:06.514Z,76.47
2023-04-20T20:56:46.761Z,76.82
2023-04-20T20:59:18.423Z,77.24
2023-04-20T21:02:12.113Z,77.55
2023-04-20T21:04:53.586Z,77.80
2023-04-20T21:07:50.515Z,77.97
2023-04-20T21:10:32.096Z,78.49
2023-04-20T21:13:08.050Z,78.71
2023-04-20T21:15:45.531Z,78.80
2023-04-20T21:18:25.695Z,79.17
2023-04-20T21:21:06.055Z,79.26
2023-04-20T21:23:48.870Z,79.45
2023-04-20T21:26:35.931Z,79.72
2023-04-20T21:29:15.945Z,80.01
2023-04-20T21:32:09.933Z,80.00
2023-04-20T21:35:04.717Z,80.24
2023-04-20T21:37:44.249Z,80.43
2023-04-20T21:40:41.574Z,80.49
2023-04-20T21:43:26.892Z,80.64
2023-04-20T21:46:27.750Z,80.78
2023-04-20T21:49:08.285Z,80.66
2023-04-20T21:51:49.356Z,80.72
2023-04-20T21:54:53.519Z,80.65
2023-04-20T21:57:33.742Z,80.36
2023-04-20T22:00:15.820Z,80.50
2023-04-20T22:02:59.374Z,80.48
2023-04-20T22:05:43.803Z,80.48
2023-04-20T22:08:52.533Z,80.43
2023-04-20T22:11:49.912Z,80.43
2023-04-20T22:14:38.748Z,80.23
2023-04-20T22:17:22.424Z,80.31
2023-04-20T22:20:16.989Z,80.40
2023-04-20T22:23:10.944Z,80.83
2023-04-20T22:26:18.134Z,81.38
2023-04-20T22:28:55.728Z,81.27
2023-04-20T22:31:52.165Z,81.00
2023-04-20T22:34:41.223Z,80.95
2023-04-20T22:37:38.582Z,81.05
2023-04-20T22:40:30.625Z,81.09
2023-04-20T22:43:11.478Z,81.16
2023-04-20T22:46:22.808Z,81.30
2023-04-20T22:49:27.384Z,81.40
2023-04-20T22:52:15.625Z,81.41
2023-04-20T22:55:08.789Z,81.40
2023-04-20T22:58:00.200Z,81.33
2023-04-20T23:00:48.967Z,81.50
2023-04-20T23:03:33.514Z,81.93
2023-04-20T23:06:38.035Z,81.92
2023-04-20T23:09:42.355Z,82.09
2023-04-20T23:12:48.035Z,81.80
2023-04-20T23:15:40.035Z,82.12
2023-04-20T23:18:34.522Z,81.81
2023-04-20T23:21:35.515Z,82.03
2023-04-20T23:24:47.672Z,82.18
2023-04-20T23:27:58.746Z,82.43
2023-04-20T23:30:53.952Z,82.49
2023-04-20T23:34:11.458Z,82.27
2023-04-20T23:37:02.183Z,82.32
2023-04-20T23:40:23.128Z,82.46
2023-04-20T23:43:10.823Z,82.77
2023-04-20T23:46:10.136Z,82.94
2023-04-20T23:48:56.525Z,83.21
2023-04-20T23:51:47.477Z,83.19
2023-04-20T23:54:51.337Z,82.98
2023-04-20T23:58:00.268Z,82.92
